USCGC Eagle — NRCB — position and weather

sailwx.info

Track history (hours):
 
Tides and Currents Weather Stations Pressure Air Temp Water Temp Dewpoint Dewpoint Depression Visibility Wind Speed Wind Dir Waves Ship Positions

USCGC Eagle (United States)

Training ship of US Coast Guard Academy, and only square-rigger in active service in the US armed services. Ex German ship Horst Wessel.

Ship's website: http://www.cga.edu/eagle/

Last reported at 2017-Aug-18 12:08 UTC. Time now 2017-Aug-20 15:37 UTC.
Position N 38°59' W 076°23'.

Type: Military. MMSI: 303990000.

Date/timePositionNaut miles runAvg speedWind from/ knotsBaromVisibWave heightAir tempDewpointWater temp
2017-Aug-18 12:08N 38°59' W 076°23'  
2017-Aug-15 03:23N 38°44' W 074°32'115 9.1
2017-Aug-14 14:39N 40°38' W 074°03'1 8.7
2017-Aug-14 14:30N 40°39' W 074°03'510.0
2017-Aug-14 14:00N 40°44' W 074°01'  
2017-Aug-11 17:32N 40°46' W 074°00'0 0.0
2017-Aug-11 17:02N 40°46' W 074°00'0 0.1
2017-Aug-11 16:56N 40°46' W 074°00'0 0.1
2017-Aug-11 16:20N 40°46' W 074°00'0 1.2
2017-Aug-11 15:58N 40°46' W 074°00'1 1.9
2017-Aug-11 15:29N 40°47' W 073°59'3 5.7
2017-Aug-11 15:00N 40°45' W 074°01'3 5.6
2017-Aug-11 14:30N 40°42' W 074°02'1 0.8
2017-Aug-11 13:29N 40°41' W 074°02'0 0.0
2017-Aug-11 12:58N 40°41' W 074°02'0 0.1
2017-Aug-11 12:02N 40°41' W 074°02'0 0.2
2017-Aug-11 11:59N 40°41' W 074°02'0 0.0
2017-Aug-11 09:53N 40°41' W 074°02'0 0.0
2017-Aug-11 07:29N 40°41' W 074°02'0 0.0
2017-Aug-11 06:23N 40°41' W 074°02'0 0.0
2017-Aug-11 05:53N 40°41' W 074°02'0 0.1
2017-Aug-11 05:28N 40°41' W 074°02'0 0.1
2017-Aug-11 04:56N 40°41' W 074°02'0 0.0
2017-Aug-11 04:29N 40°41' W 074°02'0 0.0
2017-Aug-11 03:59N 40°41' W 074°02'0 0.0
2017-Aug-11 03:26N 40°41' W 074°02'0 0.0
2017-Aug-11 02:59N 40°41' W 074°02'0 0.0
2017-Aug-11 02:30N 40°41' W 074°02'0 0.0
2017-Aug-11 02:00N 40°41' W 074°02'0 0.0
2017-Aug-11 01:30N 40°41' W 074°02'0 0.0
2017-Aug-11 01:00N 40°41' W 074°02'0 0.0
2017-Aug-11 00:30N 40°41' W 074°02'0 0.0
2017-Aug-11 00:00N 40°41' W 074°02'0 0.1
2017-Aug-10 23:30N 40°41' W 074°02'1 2.4
2017-Aug-10 23:00N 40°40' W 074°03'  
Track history (hours):
 
Tides and Currents Weather Stations Pressure Air Temp Water Temp Dewpoint Dewpoint Depression Visibility Wind Speed Wind Dir Waves Ship Positions

USCGC Eagle (United States)

Training ship of US Coast Guard Academy, and only square-rigger in active service in the US armed services. Ex German ship Horst Wessel.

Ship's website: http://www.cga.edu/eagle/

Last reported at 2017-Aug-18 12:08 UTC. Time now 2017-Aug-20 15:37 UTC.
Position N 38°59' W 076°23'.

Type: Military. MMSI: 303990000.

Date/timePositionNaut miles runAvg speedWind from/ knotsBaromVisibWave heightAir tempDewpointWater temp
2017-Aug-18 12:08N 38°59' W 076°23'  
2017-Aug-15 03:23N 38°44' W 074°32'115 9.1
2017-Aug-14 14:39N 40°38' W 074°03'1 8.7
2017-Aug-14 14:30N 40°39' W 074°03'510.0
2017-Aug-14 14:00N 40°44' W 074°01'  
2017-Aug-11 17:32N 40°46' W 074°00'0 0.0
2017-Aug-11 17:02N 40°46' W 074°00'0 0.1
2017-Aug-11 16:56N 40°46' W 074°00'0 0.1
2017-Aug-11 16:20N 40°46' W 074°00'0 1.2
2017-Aug-11 15:58N 40°46' W 074°00'1 1.9
2017-Aug-11 15:29N 40°47' W 073°59'3 5.7
2017-Aug-11 15:00N 40°45' W 074°01'3 5.6
2017-Aug-11 14:30N 40°42' W 074°02'1 0.8
2017-Aug-11 13:29N 40°41' W 074°02'0 0.0
2017-Aug-11 12:58N 40°41' W 074°02'0 0.1
2017-Aug-11 12:02N 40°41' W 074°02'0 0.2
2017-Aug-11 11:59N 40°41' W 074°02'0 0.0
2017-Aug-11 09:53N 40°41' W 074°02'0 0.0
2017-Aug-11 07:29N 40°41' W 074°02'0 0.0
2017-Aug-11 06:23N 40°41' W 074°02'0 0.0
2017-Aug-11 05:53N 40°41' W 074°02'0 0.1
2017-Aug-11 05:28N 40°41' W 074°02'0 0.1
2017-Aug-11 04:56N 40°41' W 074°02'0 0.0
2017-Aug-11 04:29N 40°41' W 074°02'0 0.0
2017-Aug-11 03:59N 40°41' W 074°02'0 0.0
2017-Aug-11 03:26N 40°41' W 074°02'0 0.0
2017-Aug-11 02:59N 40°41' W 074°02'0 0.0
2017-Aug-11 02:30N 40°41' W 074°02'0 0.0
2017-Aug-11 02:00N 40°41' W 074°02'0 0.0
2017-Aug-11 01:30N 40°41' W 074°02'0 0.0
2017-Aug-11 01:00N 40°41' W 074°02'0 0.0
2017-Aug-11 00:30N 40°41' W 074°02'0 0.0
2017-Aug-11 00:00N 40°41' W 074°02'0 0.1
2017-Aug-10 23:30N 40°41' W 074°02'1 2.4
2017-Aug-10 23:00N 40°40' W 074°03'  

Dump ship's entire track history